createdAt,value
2019-02-15T00:03:35.655Z,18.42
2019-02-15T00:06:17.276Z,20.50
2019-02-15T00:09:05.131Z,18.30
2019-02-15T00:11:47.404Z,18.20
2019-02-15T00:14:54.336Z,18.40
2019-02-15T00:17:54.069Z,18.05
2019-02-15T00:21:01.335Z,17.70
2019-02-15T00:23:44.030Z,16.48
2019-02-15T00:26:16.460Z,16.27
2019-02-15T00:29:04.383Z,13.13
2019-02-15T00:31:52.048Z,14.10
2019-02-15T00:34:32.708Z,13.72
2019-02-15T00:37:20.137Z,15.75
2019-02-15T00:40:00.880Z,14.10
2019-02-15T00:42:48.593Z,15.20
2019-02-15T00:48:19.449Z,16.52
2019-02-15T00:54:46.008Z,15.05
2019-02-15T00:57:47.632Z,14.80
2019-02-15T01:00:34.376Z,15.45
2019-02-15T01:03:16.702Z,13.95
2019-02-15T01:06:01.160Z,14.20
2019-02-15T01:08:58.217Z,13.83
2019-02-15T01:11:29.480Z,13.35
2019-02-15T01:14:09.905Z,13.98
2019-02-15T01:16:57.500Z,13.35
2019-02-15T01:19:25.452Z,15.08
2019-02-15T01:21:53.365Z,14.15
2019-02-15T01:24:21.878Z,13.15
2019-02-15T01:26:56.091Z,13.08
2019-02-15T01:29:43.711Z,14.60
2019-02-15T01:32:43.983Z,14.20
2019-02-15T01:35:31.780Z,13.38
2019-02-15T01:38:38.792Z,13.95
2019-02-15T01:41:26.439Z,13.88
2019-02-15T01:44:33.666Z,14.05
2019-02-15T01:47:35.144Z,13.80
2019-02-15T01:50:05.894Z,13.72
2019-02-15T01:52:46.395Z,14.47
2019-02-15T01:55:33.824Z,13.08
2019-02-15T01:58:14.953Z,12.68
2019-02-15T02:01:02.642Z,14.18
2019-02-15T02:03:43.645Z,14.18
2019-02-15T02:06:11.746Z,12.80
2019-02-15T02:08:59.322Z,13.90
2019-02-15T02:11:39.980Z,12.90
2019-02-15T02:14:27.379Z,13.88
2019-02-15T02:16:55.458Z,14.10
2019-02-15T02:19:43.468Z,13.05
2019-02-15T02:22:23.625Z,14.35
2019-02-15T02:24:51.644Z,14.53
2019-02-15T02:27:31.767Z,12.73
2019-02-15T02:30:19.193Z,13.93
2019-02-15T02:33:00.270Z,13.20
2019-02-15T02:35:47.652Z,14.90
2019-02-15T02:38:28.422Z,14.03
2019-02-15T02:41:16.209Z,13.90
2019-02-15T02:43:59.541Z,15.25
2019-02-15T02:46:26.260Z,14.53
2019-02-15T02:49:06.523Z,13.98
2019-02-15T02:51:54.099Z,12.60
2019-02-15T02:54:35.497Z,14.63
2019-02-15T02:57:22.870Z,15.53
2019-02-15T03:00:03.128Z,15.45
2019-02-15T03:02:50.512Z,14.35
2019-02-15T03:05:30.835Z,13.45
2019-02-15T03:08:18.186Z,14.10
2019-02-15T03:10:46.136Z,15.20
2019-02-15T03:13:33.529Z,12.90
2019-02-15T03:16:12.211Z,13.22
2019-02-15T03:18:59.596Z,13.60
2019-02-15T03:21:40.531Z,12.95
2019-02-15T03:24:27.949Z,12.30
2019-02-15T03:26:55.895Z,11.18
2019-02-15T03:29:23.901Z,12.50
2019-02-15T03:32:05.941Z,12.37
2019-02-15T03:34:36.220Z,11.88
2019-02-15T03:37:43.043Z,12.80
2019-02-15T03:40:36.161Z,12.58
2019-02-15T03:43:19.181Z,12.37
2019-02-15T03:46:06.529Z,11.60
2019-02-15T03:48:36.331Z,11.88
2019-02-15T03:51:04.214Z,11.30
2019-02-15T03:53:32.119Z,11.00
2019-02-15T03:56:00.080Z,10.70
2019-02-15T03:58:27.947Z,14.07
2019-02-15T04:00:55.864Z,13.05
2019-02-15T04:03:23.715Z,11.20
2019-02-15T04:05:51.565Z,11.43
2019-02-15T04:08:19.521Z,11.25
2019-02-15T04:10:47.441Z,11.65
2019-02-15T04:13:28.772Z,12.73
2019-02-15T04:16:09.680Z,11.65
2019-02-15T04:18:49.919Z,11.40
2019-02-15T04:21:37.284Z,11.38
2019-02-15T04:24:05.190Z,13.32
2019-02-15T04:26:52.544Z,11.55
2019-02-15T04:29:32.661Z,12.20
2019-02-15T04:32:20.138Z,11.03
2019-02-15T04:35:00.706Z,10.60
2019-02-15T04:37:48.222Z,11.15
2019-02-15T04:40:16.301Z,10.38
2019-02-15T04:42:44.236Z,11.38
2019-02-15T04:45:25.342Z,10.98
2019-02-15T04:48:13.881Z,9.90
2019-02-15T04:50:41.799Z,10.95
2019-02-15T04:53:09.785Z,11.40
2019-02-15T04:55:52.155Z,12.53
2019-02-15T04:58:39.532Z,10.55
2019-02-15T05:01:07.751Z,11.35
2019-02-15T05:03:35.777Z,11.15
2019-02-15T05:06:03.771Z,11.12
2019-02-15T05:08:31.730Z,11.83
2019-02-15T05:11:13.022Z,10.65
2019-02-15T05:14:00.424Z,13.28
2019-02-15T05:16:41.521Z,11.53
2019-02-15T05:19:50.418Z,13.28
2019-02-15T05:22:18.339Z,11.75
2019-02-15T05:24:59.753Z,11.63
2019-02-15T05:27:27.761Z,12.23
2019-02-15T05:30:08.255Z,12.88
2019-02-15T05:32:55.670Z,14.30
2019-02-15T05:35:36.405Z,12.60
2019-02-15T05:38:24.236Z,13.48
2019-02-15T05:41:05.831Z,11.83
2019-02-15T05:43:53.281Z,13.65
2019-02-15T05:46:34.039Z,12.65
2019-02-15T05:49:21.543Z,14.45
2019-02-15T05:52:02.160Z,13.62
2019-02-15T05:54:43.014Z,13.03
2019-02-15T05:57:10.954Z,13.48
2019-02-15T05:59:38.963Z,15.88
2019-02-15T06:02:26.951Z,14.15
2019-02-15T06:04:54.847Z,12.98
2019-02-15T06:07:42.333Z,14.13
2019-02-15T06:10:10.651Z,13.10
2019-02-15T06:12:40.487Z,13.05
2019-02-15T06:15:15.190Z,13.93
2019-02-15T06:17:38.551Z,13.50
2019-02-15T06:20:06.838Z,14.98
2019-02-15T06:22:34.838Z,14.33
2019-02-15T06:25:03.167Z,14.35
2019-02-15T06:27:31.217Z,14.65
2019-02-15T06:29:59.198Z,14.33
2019-02-15T06:32:27.421Z,14.70
2019-02-15T06:34:55.445Z,14.73
2019-02-15T06:37:23.414Z,14.95
2019-02-15T06:39:52.548Z,13.68
2019-02-15T06:42:21.670Z,14.63
2019-02-15T06:44:49.961Z,13.98
2019-02-15T06:47:18.098Z,14.80
2019-02-15T06:49:46.053Z,15.50
2019-02-15T06:52:15.908Z,15.23
2019-02-15T06:54:44.119Z,15.38
2019-02-15T06:57:37.014Z,15.23
2019-02-15T07:00:25.738Z,14.85
2019-02-15T07:02:57.934Z,14.85
2019-02-15T07:05:42.193Z,14.35
2019-02-15T07:11:36.392Z,14.65
2019-02-15T07:14:16.562Z,15.88
2019-02-15T07:16:58.681Z,13.95
2019-02-15T07:19:46.727Z,16.15
2019-02-15T07:22:15.085Z,14.40
2019-02-15T07:25:03.046Z,15.20
2019-02-15T07:27:43.695Z,16.12
2019-02-15T07:30:31.742Z,15.68
2019-02-15T07:33:13.484Z,16.35
2019-02-15T07:35:54.879Z,15.23
2019-02-15T07:38:22.907Z,15.18
2019-02-15T07:41:03.934Z,16.05
2019-02-15T07:43:51.327Z,15.23
2019-02-15T07:46:19.345Z,16.02
2019-02-15T07:48:47.373Z,16.00
2019-02-15T07:51:15.974Z,15.25
2019-02-15T07:53:43.998Z,14.53
2019-02-15T07:56:25.260Z,14.45
2019-02-15T08:02:13.267Z,13.58
2019-02-15T08:04:53.932Z,13.48
2019-02-15T08:07:21.986Z,14.07
2019-02-15T08:09:50.857Z,15.48
2019-02-15T08:12:38.585Z,15.72
2019-02-15T08:15:20.061Z,14.25
2019-02-15T08:18:07.706Z,15.18
2019-02-15T08:20:49.041Z,13.70
2019-02-15T08:23:36.601Z,15.55
2019-02-15T08:26:17.148Z,14.40
2019-02-15T08:28:59.464Z,14.45
2019-02-15T08:31:27.605Z,14.10
2019-02-15T08:34:08.252Z,12.58
2019-02-15T08:36:49.099Z,11.78
2019-02-15T08:39:18.690Z,12.03
2019-02-15T08:42:06.392Z,11.60
2019-02-15T08:44:35.226Z,11.70
2019-02-15T08:47:04.253Z,12.37
2019-02-15T08:49:32.307Z,12.20
2019-02-15T08:52:00.324Z,11.88
2019-02-15T08:54:29.518Z,10.70
2019-02-15T08:57:19.261Z,11.15
2019-02-15T09:02:49.938Z,10.35
2019-02-15T09:05:30.861Z,10.45
2019-02-15T09:08:18.889Z,11.43
2019-02-15T09:11:02.341Z,11.03
2019-02-15T09:13:50.711Z,13.40
2019-02-15T09:16:35.727Z,10.15
2019-02-15T09:19:16.871Z,10.35
2019-02-15T09:21:49.637Z,10.85
2019-02-15T09:24:18.563Z,10.58
2019-02-15T09:26:46.795Z,9.78
2019-02-15T09:29:15.100Z,9.93
2019-02-15T09:31:43.123Z,9.95
2019-02-15T09:34:11.151Z,10.08
2019-02-15T09:36:39.323Z,9.68
2019-02-15T09:39:28.107Z,9.08
2019-02-15T09:41:57.615Z,9.20
2019-02-15T09:44:25.752Z,10.58
2019-02-15T09:46:53.677Z,9.78
2019-02-15T09:49:34.170Z,9.15
2019-02-15T09:52:21.768Z,9.68
2019-02-15T09:55:02.828Z,9.93
2019-02-15T09:57:31.339Z,10.35
2019-02-15T10:00:19.746Z,10.38
2019-02-15T10:03:02.422Z,9.68
2019-02-15T10:05:50.669Z,10.50
2019-02-15T10:08:31.291Z,9.98
2019-02-15T10:11:18.741Z,10.48
2019-02-15T10:13:48.929Z,9.63
2019-02-15T10:16:17.948Z,11.65
2019-02-15T10:19:06.830Z,10.13
2019-02-15T10:21:51.763Z,10.93
2019-02-15T10:24:39.454Z,10.03
2019-02-15T10:27:07.594Z,9.35
2019-02-15T10:29:55.274Z,9.33
2019-02-15T10:32:42.860Z,9.53
2019-02-15T10:53:24.653Z,10.38
2019-02-15T10:55:53.198Z,10.05
2019-02-15T10:58:38.433Z,10.80
2019-02-15T11:01:06.770Z,10.32
2019-02-15T11:03:36.594Z,9.58
2019-02-15T11:06:37.628Z,10.70
2019-02-15T11:09:27.379Z,11.08
2019-02-15T11:12:08.191Z,10.63
2019-02-15T11:14:36.181Z,10.23
2019-02-15T11:17:05.064Z,11.55
2019-02-15T11:19:33.416Z,10.25
2019-02-15T11:22:14.186Z,10.58
2019-02-15T11:24:42.086Z,11.33
2019-02-15T11:27:10.055Z,10.23
2019-02-15T11:29:57.565Z,11.22
2019-02-15T11:32:37.928Z,9.80
2019-02-15T11:35:25.564Z,10.40
2019-02-15T11:37:53.634Z,10.40
2019-02-15T11:40:22.732Z,10.60
2019-02-15T11:42:50.876Z,11.30
2019-02-15T11:45:18.928Z,11.57
2019-02-15T11:48:01.466Z,11.45
2019-02-15T11:50:32.495Z,11.65
2019-02-15T11:53:00.750Z,11.50
2019-02-15T11:55:29.152Z,10.82
2019-02-15T11:58:16.704Z,9.97
2019-02-15T12:01:05.400Z,11.08
2019-02-15T12:03:45.775Z,9.90
2019-02-15T12:06:33.185Z,10.55
2019-02-15T12:09:14.453Z,9.63
2019-02-15T12:12:10.412Z,10.10
2019-02-15T12:14:51.843Z,10.20
2019-02-15T12:17:32.839Z,10.70
2019-02-15T12:20:20.344Z,10.27
2019-02-15T12:23:04.274Z,9.50
2019-02-15T12:25:51.620Z,11.03
2019-02-15T12:28:32.095Z,9.50
2019-02-15T12:31:19.705Z,9.23
2019-02-15T12:34:02.032Z,8.90
2019-02-15T12:36:30.047Z,10.23
2019-02-15T12:38:58.287Z,14.63
2019-02-15T12:41:41.200Z,18.50
2019-02-15T12:44:28.874Z,11.23
2019-02-15T12:47:15.234Z,9.43
2019-02-15T12:49:59.911Z,7.93
2019-02-15T12:52:28.393Z,8.50
2019-02-15T12:55:16.032Z,7.83
2019-02-15T12:57:56.861Z,8.47
2019-02-15T13:00:37.739Z,9.00
2019-02-15T13:03:25.162Z,7.60
2019-02-15T13:05:53.132Z,7.53
2019-02-15T13:08:34.083Z,7.00
2019-02-15T13:11:16.198Z,6.60
2019-02-15T13:14:03.769Z,7.83
2019-02-15T13:16:44.179Z,6.03
2019-02-15T13:19:31.649Z,7.17
2019-02-15T13:22:12.818Z,7.33
2019-02-15T13:24:43.130Z,6.20
2019-02-15T13:27:16.934Z,7.10
2019-02-15T13:30:04.993Z,6.37
2019-02-15T13:32:45.557Z,5.70
2019-02-15T13:35:26.416Z,5.90
2019-02-15T13:38:08.285Z,4.40
2019-02-15T13:40:55.763Z,5.20
2019-02-15T13:43:38.184Z,4.30
2019-02-15T13:46:06.157Z,5.40
2019-02-15T13:48:48.366Z,5.40
2019-02-15T13:51:35.854Z,6.07
2019-02-15T13:54:04.337Z,5.97
2019-02-15T13:56:32.915Z,6.03
2019-02-15T13:59:15.108Z,5.93
2019-02-15T14:02:03.069Z,6.53
2019-02-15T14:04:31.089Z,5.73
2019-02-15T14:07:19.126Z,5.60
2019-02-15T14:09:59.137Z,6.63
2019-02-15T14:12:46.627Z,6.17
2019-02-15T14:15:27.317Z,6.07
2019-02-15T14:18:08.319Z,6.97
2019-02-15T14:20:55.870Z,6.20
2019-02-15T14:23:37.673Z,5.53
2019-02-15T14:26:06.943Z,6.10
2019-02-15T14:28:48.927Z,5.30
2019-02-15T14:31:36.442Z,5.30
2019-02-15T14:34:16.729Z,5.80
2019-02-15T14:39:59.146Z,5.50
2019-02-15T14:42:27.273Z,5.27
2019-02-15T14:45:14.926Z,5.80
2019-02-15T14:47:56.109Z,5.20
2019-02-15T14:50:43.482Z,4.90
2019-02-15T14:53:11.716Z,5.30
2019-02-15T14:55:39.774Z,4.37
2019-02-15T14:58:08.096Z,4.27
2019-02-15T15:00:36.129Z,4.20
2019-02-15T15:03:04.847Z,3.50
2019-02-15T15:05:54.902Z,3.67
2019-02-15T15:08:38.975Z,3.13
2019-02-15T15:11:08.575Z,4.13
2019-02-15T15:13:37.174Z,3.43
2019-02-15T15:16:06.993Z,3.10
2019-02-15T15:18:35.789Z,4.07
2019-02-15T15:21:04.483Z,3.30
2019-02-15T15:23:33.126Z,3.50
2019-02-15T15:26:11.367Z,3.90
2019-02-15T15:28:34.818Z,3.20
2019-02-15T15:31:03.723Z,3.20
2019-02-15T15:42:53.325Z,3.60
2019-02-15T15:45:21.794Z,4.10
2019-02-15T15:47:50.005Z,3.67
2019-02-15T15:50:19.441Z,3.90
2019-02-15T15:52:48.121Z,3.30
2019-02-15T15:55:17.992Z,3.57
2019-02-15T15:57:46.348Z,3.43
2019-02-15T16:00:14.851Z,3.50
2019-02-15T16:17:49.819Z,4.30
2019-02-15T16:20:35.251Z,4.50
2019-02-15T16:23:23.125Z,4.43
2019-02-15T16:26:08.092Z,4.33
2019-02-15T16:28:55.991Z,4.53
2019-02-15T16:31:36.398Z,4.23
2019-02-15T16:34:24.189Z,4.07
2019-02-15T16:36:52.235Z,5.70
2019-02-15T16:39:20.486Z,4.50
2019-02-15T16:41:48.728Z,5.03
2019-02-15T16:44:39.106Z,6.27
2019-02-15T16:47:07.786Z,6.00
2019-02-15T16:53:06.532Z,8.00
2019-02-15T16:58:37.547Z,6.47
2019-02-15T17:01:11.224Z,6.73
2019-02-15T17:03:42.890Z,8.57
2019-02-15T17:06:12.729Z,7.87
2019-02-15T17:12:24.617Z,8.27
2019-02-15T17:21:12.886Z,9.03
2019-02-15T17:23:41.391Z,8.47
2019-02-15T17:26:09.818Z,10.95
2019-02-15T17:28:39.913Z,10.23
2019-02-15T17:31:08.831Z,14.90
2019-02-15T17:33:37.093Z,16.73
2019-02-15T17:36:05.637Z,11.70
2019-02-15T17:38:58.053Z,14.13
2019-02-15T17:41:45.798Z,18.70
2019-02-15T17:44:26.864Z,18.80
2019-02-15T17:47:15.057Z,21.85
2019-02-15T17:50:00.345Z,14.47
2019-02-15T17:52:48.060Z,14.73
2019-02-15T17:55:30.471Z,14.07
2019-02-15T17:57:59.979Z,15.28
2019-02-15T18:00:47.004Z,12.75
2019-02-15T18:03:27.275Z,16.50
2019-02-15T18:06:14.874Z,13.48
2019-02-15T18:08:55.547Z,11.68
2019-02-15T18:11:43.572Z,11.78
2019-02-15T18:14:11.844Z,12.68
2019-02-15T18:17:01.011Z,15.72
2019-02-15T18:19:29.096Z,14.95
2019-02-15T18:21:57.258Z,14.95
2019-02-15T18:24:38.214Z,15.58
2019-02-15T18:27:06.519Z,13.10
2019-02-15T18:30:13.403Z,16.73
2019-02-15T18:32:53.613Z,15.85
2019-02-15T18:35:41.564Z,19.17
2019-02-15T18:38:22.567Z,18.52
2019-02-15T18:41:13.485Z,18.02
2019-02-15T18:44:11.838Z,17.62
2019-02-15T18:46:40.149Z,17.25
2019-02-15T18:49:08.113Z,15.65
2019-02-15T18:51:55.633Z,16.70
2019-02-15T18:54:35.877Z,19.82
2019-02-15T18:57:23.643Z,21.15
2019-02-15T19:00:04.941Z,19.62
2019-02-15T19:02:47.083Z,22.40
2019-02-15T19:05:15.222Z,23.20
2019-02-15T19:07:55.833Z,22.22
2019-02-15T19:10:23.901Z,26.87
2019-02-15T19:12:51.979Z,22.05
2019-02-15T19:15:39.461Z,27.52
2019-02-15T19:18:20.391Z,24.52
2019-02-15T19:21:08.922Z,25.10
2019-02-15T19:23:50.638Z,18.55
2019-02-15T19:26:31.913Z,23.92
2019-02-15T19:29:19.976Z,27.95
2019-02-15T19:32:01.325Z,27.02
2019-02-15T19:34:49.080Z,18.50
2019-02-15T19:37:30.002Z,21.52
2019-02-15T19:40:17.884Z,16.23
2019-02-15T19:42:48.314Z,26.93
2019-02-15T19:45:36.122Z,19.10
2019-02-15T19:48:16.969Z,19.02
2019-02-15T19:50:45.092Z,22.58
2019-02-15T19:53:25.696Z,23.22
2019-02-15T19:56:13.226Z,24.12
2019-02-15T19:58:43.736Z,20.65
2019-02-15T20:01:37.598Z,24.75
2019-02-15T20:04:18.546Z,17.20
2019-02-15T20:06:58.681Z,17.48
2019-02-15T20:09:26.915Z,20.50
2019-02-15T20:12:07.958Z,20.20
2019-02-15T20:14:55.472Z,17.52
2019-02-15T20:17:36.836Z,22.65
2019-02-15T20:20:24.404Z,19.02
2019-02-15T20:23:05.285Z,15.00
2019-02-15T20:25:46.345Z,11.45
2019-02-15T20:28:27.684Z,13.80
2019-02-15T20:31:15.547Z,11.90
2019-02-15T20:33:56.720Z,13.50
2019-02-15T20:36:44.223Z,13.60
2019-02-15T20:39:25.978Z,13.15
2019-02-15T20:42:06.504Z,14.47
2019-02-15T20:44:34.562Z,11.73
2019-02-15T20:47:02.673Z,12.40
2019-02-15T20:49:57.686Z,13.05
2019-02-15T20:52:32.295Z,12.47
2019-02-15T20:55:19.768Z,12.73
2019-02-15T20:58:00.924Z,15.50
2019-02-15T21:00:29.102Z,15.98
2019-02-15T21:02:57.176Z,13.70
2019-02-15T21:05:25.219Z,12.55
2019-02-15T21:07:55.460Z,11.63
2019-02-15T21:10:23.577Z,10.90
2019-02-15T21:13:05.426Z,14.03
2019-02-15T21:15:53.432Z,17.50
2019-02-15T21:18:37.627Z,15.10
2019-02-15T21:21:25.204Z,18.50
2019-02-15T21:24:06.155Z,17.80
2019-02-15T21:26:34.273Z,20.85
2019-02-15T21:29:17.222Z,20.90
2019-02-15T21:31:58.377Z,20.75
2019-02-15T21:34:39.564Z,18.27
2019-02-15T21:37:20.597Z,18.17
2019-02-15T21:39:48.712Z,22.00
2019-02-15T21:42:16.764Z,22.17
2019-02-15T21:45:04.714Z,22.95
2019-02-15T21:47:32.772Z,24.77
2019-02-15T21:50:00.899Z,25.30
2019-02-15T21:52:44.575Z,25.05
2019-02-15T21:55:12.976Z,26.07
2019-02-15T21:57:41.118Z,27.00
2019-02-15T22:00:28.577Z,25.35
2019-02-15T22:03:09.529Z,26.87
2019-02-15T22:05:57.087Z,23.12
2019-02-15T22:08:37.875Z,26.05
2019-02-15T22:11:25.463Z,23.62
2019-02-15T22:14:08.227Z,21.20
2019-02-15T22:16:55.958Z,24.63
2019-02-15T22:19:24.140Z,24.18
2019-02-15T22:21:52.276Z,23.22
2019-02-15T22:24:33.179Z,23.87
2019-02-15T22:27:01.205Z,25.25
2019-02-15T22:29:29.290Z,23.83
2019-02-15T22:32:17.019Z,23.20
2019-02-15T22:35:04.490Z,19.32
2019-02-15T22:37:45.097Z,21.23
2019-02-15T22:40:55.470Z,21.45
2019-02-15T22:43:36.365Z,19.12
2019-02-15T22:46:23.979Z,18.35
2019-02-15T22:49:04.271Z,24.70
2019-02-15T22:51:51.739Z,33.50
2019-02-15T22:54:32.608Z,35.68
2019-02-15T22:57:00.659Z,20.88
2019-02-15T22:59:28.906Z,15.95
2019-02-15T23:02:16.530Z,19.75
2019-02-15T23:04:44.703Z,21.48
2019-02-15T23:07:13.284Z,21.65
2019-02-15T23:09:41.264Z,23.02
2019-02-15T23:12:09.529Z,25.27
2019-02-15T23:14:51.080Z,15.78
2019-02-15T23:17:38.514Z,23.07
2019-02-15T23:20:19.214Z,21.75
2019-02-15T23:22:59.541Z,21.90
2019-02-15T23:25:46.913Z,19.48
2019-02-15T23:28:29.768Z,19.40
2019-02-15T23:31:18.172Z,20.45
2019-02-15T23:33:56.779Z,17.87
2019-02-15T23:36:44.256Z,17.30
2019-02-15T23:39:24.823Z,17.45
2019-02-15T23:42:12.171Z,20.60
2019-02-15T23:44:53.039Z,20.17
2019-02-15T23:47:21.960Z,20.95
2019-02-15T23:49:49.940Z,19.30
2019-02-15T23:52:17.880Z,16.67
2019-02-15T23:54:57.942Z,17.70
2019-02-15T23:57:25.877Z,13.98
2019-02-15T23:59:53.798Z,13.50
